Bango, Nevada Weather observations

Data are for 10 minute period ending at time listed.
 Day   Time    Ave.   Ave.  Ave.  Vector   Max.   Stn.    Total    Solar   Ave.  
  of    of     Air    Rel.  Wind   Wind    Wind   Baro.  Precip.   Rad.    Soil  
Year   Day     Temp.  Hum.  Speed  Dir.    Gust   Pres.                    Temp. 
2015   (PST)    F      %     mph   deg.    mph     mb.     in.     W/m2     F    
--------------------------------------------------------------------------------- 
 149    4:30   55.1    50    2.2   307      4.2   874.9    0.00       2    24.1  
 149    4:40   54.7    50    0.7   284      1.5   875.0    0.00       5    24.0  
 149    4:50   55.9    48    2.0   321      5.1   875.0    0.00      15    23.9  
 149    5:00   56.5    48    4.0   336      6.0   875.0    0.00      32    23.8  
 149    5:10   57.4    47    3.1   345      5.1   875.1    0.00      57    23.7  
 149    5:20   57.1    50    1.6   149      3.3   875.2    0.00      88    23.6  
 149    5:30   57.9    49    2.6   174      4.2   875.2    0.00     119    23.5  
 149    5:40   59.6    47    2.6   189      3.3   875.2    0.00     148    23.4  
 149    5:50   61.8    44    1.7   220      2.4   875.3    0.00     179    23.3  
 149    6:00   63.9    41    2.2   177      3.3   875.3    0.00     212    23.2  
 149    6:10   64.3    41    2.9   167      4.2   875.4    0.00     245    23.1  
 149    6:20   65.9    36    2.8   169      4.2   875.5    0.00     278    23.0  
 149    6:30   67.6    34    2.3   177      3.3   875.6    0.00     313    22.9  
 149    6:40   69.1    29    0.8   182      2.4   875.7    0.00     348    22.8  
 149    6:50   70.2    27    0.6   169      1.5   875.8    0.00     383    22.7  
 149    7:00   70.7    27    1.3   242      2.4   875.9    0.00     417    22.7  
 149    7:10   71.5    26    1.9    75      4.2   876.0    0.00     451    22.6  
 149    7:20   71.3    26    4.7    56      8.7   876.2    0.00     484    22.5  
 149    7:30   71.2    26    4.5    52      6.9   876.2    0.00     516    22.5  
 149    7:40   71.0    27    5.7    41      7.8   876.2    0.00     551    22.4  
 149    7:50   71.0    27    6.2    36     10.5   876.2    0.00     584    22.4  
 149    8:00   71.2    27    5.9    31      9.6   876.3    0.00     616    22.3  
 149    8:10   71.6    27    4.3     6      6.9   876.3    0.00     649    22.3  
 149    8:20   72.2    26    4.6     8      6.9   876.3    0.00     676    22.3  
 149    8:30   73.5    25    4.4    77      6.9   876.3    0.00     713    22.2  
 149    8:40   74.5    24    3.6    97      6.9   876.2    0.00     741    22.2  
 149    8:50   75.6    23    4.8    98      8.7   876.2    0.00     772    22.2  
 149    9:00   75.6    23    3.8    63      8.7   876.2    0.00     796    22.2  
 149    9:10   76.1    22    6.0    95     10.5   876.2    0.00     818    22.2  
 149    9:20   76.1    23    5.8    94     11.4   876.2    0.00     845    22.3  
 149    9:30   76.6    22    6.4    92     11.4   876.1    0.00     855    22.3  
 149    9:40   77.0    22    6.8    89     12.3   876.1    0.00     882    22.4  
 149    9:50   77.2    22    6.1   100     11.4   876.1    0.00     902    22.4  
 149   10:00   77.6    22    7.4   126     14.1   876.0    0.00     932    22.5  
 149   10:10   78.3    21    7.5   125     12.3   875.9    0.00     954    22.6  
 149   10:20   78.6    21    7.1   105     12.3   875.8    0.00     951    22.7  
 149   10:30   79.6    20    7.6    82     11.4   875.6    0.00     988    22.8  
 149   10:40   79.4    20    6.6    82     13.2   875.6    0.00     964    23.0  
 149   10:50   79.5    20    7.1   142     12.3   875.5    0.00     997    23.1  
 149   11:00   79.5    20    7.1    85     11.4   875.4    0.00     996    23.3  
 149   11:10   80.8    19    7.0   122     12.3   875.2    0.00    1049    23.4  
 149   11:20   81.4    18    7.3    89     14.1   875.1    0.00     981    23.6  
 149   11:30   81.2    18    6.4   122     14.9   875.0    0.00     895    23.8  
 149   11:40   81.4    17    7.6    88     14.9   875.0    0.00     822    23.9  
 149   11:50   81.1    17    7.3    62     14.1   874.9    0.00     735    24.1  
 149   12:00   82.5    16    7.0    87     12.3   874.8    0.00     979    24.3  
 149   12:10   83.4    16    8.0    90     16.7   874.7    0.00     848    24.5  
 149   12:20   82.9    16    7.7    89     15.8   874.6    0.00    1074    24.7  
 149   12:30   83.1    16    5.5   179     15.8   874.5    0.00     856    24.9  
 149   12:40   82.9    16   10.9    94     17.6   874.4    0.00     535    25.1  
 149   12:50   82.5    16    6.9    92     11.4   874.3    0.00     520    25.3  
 149   13:00   83.4    16    5.9    91     11.4   874.1    0.00     831    25.5  
 149   13:10   85.0    14    8.7    94     16.7   874.0    0.00    1025    25.7  
 149   13:20   84.7    14    8.0    96     16.7   873.8    0.00    1005    25.9  
 149   13:30   84.6    14    7.4   133     12.3   873.7    0.00     967    26.1  
 149   13:40   84.4    14    8.6    93     14.9   873.6    0.00     935    26.3  
 149   13:50   85.5    13    7.8    90     14.9   873.5    0.00     878    26.5  
 149   14:00   85.3    13    5.3    46     12.3   873.5    0.00     810    26.6  
 149   14:10   85.4    13    7.6    89     14.1   873.5    0.00     440    26.8  
 149   14:20   85.6    13    7.2    30     13.2   873.3    0.00     937    27.0  
 149   14:30   86.4    13    6.1    68     10.5   873.2    0.00     831    27.2  
 149   14:40   86.0    13    6.9   104     13.2   873.0    0.00     792    27.3  
 149   14:50   86.5    13    5.8   100     10.5   873.0    0.00     717    27.5  
 149   15:00   87.1    12    3.1    64      7.8   873.0    0.00     578    27.7  
 149   15:10   87.2    12    4.6   315     11.4   872.8    0.00     838    27.8  
 149   15:20   86.8    12    3.9     7      7.8   872.7    0.00     764    28.0  
 149   15:30   88.3    12    5.1    75     12.3   872.5    0.00     656    28.1  
 149   15:40   86.6    12    8.6    91     15.8   872.4    0.00     541    28.3  
 149   15:50   87.2    12    4.6    63     11.4   872.4    0.00     585    28.4  
 149   16:00   87.7    12    8.0    79     12.3   872.3    0.00     502    28.5  
 149   16:10   86.4    12    7.6    58     10.5   872.2    0.00     438    28.7  
 149   16:20   86.5    12    4.7    79      7.8   872.2    0.00     319    28.8  
 149   16:30   86.5    12    3.6    80      8.7   872.1    0.00     250    28.9  
 149   16:40   86.8    12    7.1    87     12.3   872.0    0.00     346    29.0  
 149   16:50   86.3    12    8.1    86     16.7   872.0    0.00     253    29.1  
 149   17:00   86.1    12    8.0    89     11.4   872.0    0.00     181    29.2  
 149   17:10   85.9    12    7.5    55     12.3   871.9    0.00     215    29.3  
 149   17:20   85.8    12   10.4    41     14.1   871.9    0.00     263    29.4  
 149   17:30   85.5    12    8.5    42     12.3   871.9    0.00     195    29.4  
 149   17:40   85.4    12    9.3    61     12.3   871.9    0.00     170    29.5  
 149   17:50   85.2    12    8.0    56     10.5   871.9    0.00     164    29.5  
 149   18:00   85.2    12    8.3    53     11.4   871.9    0.00     135    29.5  
 149   18:10   84.9    12    6.7    56      9.6   872.0    0.00     105    29.6  
 149   18:20   84.6    13    6.0    60      8.7   872.0    0.00      75    29.6  
 149   18:30   84.4    13    4.7    64      6.9   872.1    0.00      62    29.6  
 149   18:40   84.2    13    3.1    77      4.2   872.1    0.00      50    29.6  
 149   18:50   83.8    14    2.8    99      5.1   872.2    0.00      36    29.6  
 149   19:00   82.6    15    2.7   104      4.2   872.2    0.00      19    29.6  
 149   19:10   81.6    16    9.3   317     15.8   872.4    0.00      10    29.5  
 149   19:20   81.5    16    9.4   334     14.1   872.5    0.00       3    29.5  
 149   19:30   81.1    16    8.6   341     11.4   872.5    0.00       1    29.5  
 149   19:40   79.4    18    6.3   327      8.7   872.6    0.00       0    29.5  
 149   19:50   78.9    17    6.9   302     13.2   872.6    0.00       0    29.4  
 149   20:00   79.6    16   12.3   292     19.4   872.6    0.00       0    29.4  
 149   20:10   79.6    15   14.7   288     19.4   872.7    0.00       0    29.3  
 149   20:20   79.3    15   14.7   288     19.4   872.8    0.00       0    29.3  
 149   20:30   79.1    15   14.5   290     19.4   872.9    0.00       0    29.2  
 149   20:40   78.7    16   11.4   306     18.5   873.1    0.00       0    29.1  
 149   20:50   77.7    16   11.2   303     15.8   873.1    0.00       0    29.1  
 149   21:00   77.6    16   11.5   310     14.9   873.2    0.00       0    29.0  
 149   21:10   77.5    17   11.6   306     14.1   873.3    0.00       0    28.9  
 149   21:20   76.3    18   10.5   318     13.2   873.3    0.00       0    28.8  
 149   21:30   75.3    18   10.7   300     13.2   873.2    0.00       0    28.8  
 149   21:40   76.2    18   11.6   297     15.8   873.2    0.00       0    28.7  
 149   21:50   76.9    18   12.2   299     16.7   873.1    0.00       0    28.6  
 149   22:00   76.9    17   12.2   295     15.8   873.2    0.00       0    28.5  
 149   22:10   77.1    17   11.5   298     14.9   873.2    0.00       0    28.4  
 149   22:20   76.6    17   11.3   291     14.1   873.2    0.00       0    28.3  
 149   22:30   76.6    17   13.2   296     16.7   873.2    0.00       0    28.2  
 149   22:40   76.6    17   12.8   297     16.7   873.3    0.00       0    28.1  
 149   22:50   76.2    18   11.8   292     14.9   873.4    0.00       0    28.1  
 149   23:00   75.9    18   12.2   291     15.8   873.4    0.00       0    28.0  
 149   23:10   75.5    18   12.2   292     15.8   873.4    0.00       0    27.9  
 149   23:20   75.4    18   13.1   288     15.8   873.4    0.00       0    27.8  
 149   23:30   74.4    19   12.5   287     16.7   873.5    0.00       0    27.7  
 149   23:40   74.4    19   14.0   289     17.6   873.6    0.00       0    27.6  
 149   23:50   74.4    19   13.4   290     17.6   873.6    0.00       0    27.5  
 150    0:00   74.6    19   15.4   298     19.4   873.5    0.00       0    27.5  
 150    0:10   74.2    20   14.4   289     18.5   873.5    0.00       0    27.4  
 150    0:20   73.5    21   14.7   288     19.4   873.5    0.00       0    27.3  
 150    0:30   73.7    21   13.3   289     18.5   873.5    0.00       0    27.2  
 150    0:40   73.5    21   11.6   287     14.9   873.5    0.00       0    27.1  
 150    0:50   72.9    21   13.9   288     18.5   873.4    0.00       0    27.0  
 150    1:00   72.8    21   12.2   282     14.9   873.4    0.00       0    26.9  
 150    1:10   72.6    21   11.8   287     15.8   873.4    0.00       0    26.9  
 150    1:20   72.6    21   11.5   284     14.9   873.4    0.00       0    26.8  
 150    1:30   72.1    22   10.3   280     14.1   873.4    0.00       0    26.7  
 150    1:40   71.7    22   10.5   277     13.2   873.5    0.00       0    26.6  
 150    1:50   71.4    22   10.3   282     14.9   873.4    0.00       0    26.5  
 150    2:00   70.8    23   10.1   280     14.9   873.4    0.00       0    26.5  
 150    2:10   71.0    22   11.7   296     15.8   873.3    0.00       0    26.4  
 150    2:20   70.5    22   10.8   298     13.2   873.2    0.00       0    26.3  
 150    2:30   70.3    23   10.4   299     13.2   873.2    0.00       0    26.2  
 150    2:40   69.6    24    9.8   298     12.3   873.2    0.00       0    26.2  
 150    2:50   66.5    27    6.3   249      9.6   873.2    0.00       0    26.1  
 150    3:00   65.1    28    6.5   239      7.8   873.1    0.00       0    26.0  
 150    3:10   64.4    28    7.3   246     10.5   873.0    0.00       0    25.9  
 150    3:20   66.7    26    5.5   283     10.5   872.9    0.00       0    25.9  
 150    3:30   67.8    25    4.6   317      8.7   872.9    0.00       0    25.8  
 150    3:40   66.8    25    6.4   240      9.6   873.0    0.00       0    25.7  
 150    3:50   63.4    29    6.5   226      8.7   873.0    0.00       0    25.6  
 150    4:00   63.6    29    3.6   223      5.1   873.0    0.00       0    25.6  
 150    4:10   61.7    34    4.4   207      6.9   873.0    0.00       0    25.5  
 150    4:20   61.6    33    6.9   216      8.7   873.1    0.00       0    25.4  

Return to Garden Spring, Nevada graphs page.


Western Regional Climate Center,wrcc@dri.edu